createdAt,value
2018-06-30T00:02:28.583Z,76.90
2018-06-30T00:04:56.906Z,76.70
2018-06-30T00:07:25.250Z,75.80
2018-06-30T00:09:53.591Z,75.80
2018-06-30T00:12:21.995Z,75.70
2018-06-30T00:14:50.335Z,75.00
2018-06-30T00:17:18.674Z,75.20
2018-06-30T00:19:47.018Z,74.80
2018-06-30T00:22:15.354Z,74.80
2018-06-30T00:24:43.690Z,74.70
2018-06-30T00:27:17.526Z,74.50
2018-06-30T00:29:45.846Z,74.30
2018-06-30T00:32:14.186Z,74.30
2018-06-30T00:34:42.504Z,74.10
2018-06-30T00:37:10.826Z,74.10
2018-06-30T00:39:39.155Z,74.00
2018-06-30T00:42:07.478Z,74.10
2018-06-30T00:44:35.822Z,73.80
2018-06-30T00:47:04.159Z,73.70
2018-06-30T00:49:32.499Z,73.40
2018-06-30T00:52:00.835Z,73.40
2018-06-30T00:54:29.195Z,73.60
2018-06-30T00:56:57.543Z,73.40
2018-06-30T00:59:25.906Z,73.60
2018-06-30T01:01:54.366Z,73.50
2018-06-30T01:04:22.774Z,73.70
2018-06-30T01:06:51.162Z,73.60
2018-06-30T01:09:19.501Z,73.30
2018-06-30T01:11:47.826Z,73.50
2018-06-30T01:14:16.182Z,73.50
2018-06-30T01:16:44.526Z,73.50
2018-06-30T01:19:13.159Z,73.50
2018-06-30T01:21:41.483Z,73.50
2018-06-30T01:24:10.075Z,73.50
2018-06-30T01:26:38.430Z,73.40
2018-06-30T01:31:34.918Z,73.50
2018-06-30T01:34:03.294Z,73.50
2018-06-30T01:36:31.626Z,73.70
2018-06-30T01:38:59.963Z,74.10
2018-06-30T01:41:28.303Z,74.20
2018-06-30T01:43:56.647Z,74.50
2018-06-30T01:46:24.986Z,74.70
2018-06-30T01:48:53.352Z,74.80
2018-06-30T01:51:22.214Z,75.00
2018-06-30T01:53:50.575Z,75.00
2018-06-30T01:56:18.903Z,75.00
2018-06-30T01:58:47.295Z,75.10
2018-06-30T02:01:15.614Z,75.10
2018-06-30T02:03:44.048Z,75.10
2018-06-30T02:06:12.367Z,74.90
2018-06-30T02:08:40.698Z,75.00
2018-06-30T02:11:09.046Z,75.10
2018-06-30T02:13:37.482Z,75.30
2018-06-30T02:16:05.842Z,75.60
2018-06-30T02:18:34.177Z,76.00
2018-06-30T02:21:02.491Z,76.00
2018-06-30T02:23:30.823Z,75.90
2018-06-30T02:25:59.277Z,75.90
2018-06-30T02:28:28.366Z,75.90
2018-06-30T02:30:56.731Z,75.90
2018-06-30T02:33:25.131Z,76.00
2018-06-30T02:35:53.472Z,76.10
2018-06-30T02:38:21.811Z,76.10
2018-06-30T02:40:50.169Z,76.30
2018-06-30T02:43:18.494Z,76.40
2018-06-30T02:45:46.877Z,76.70
2018-06-30T02:48:15.191Z,76.90
2018-06-30T02:50:43.570Z,77.10
2018-06-30T02:55:39.978Z,77.30
2018-06-30T02:58:08.561Z,77.40
2018-06-30T03:00:36.915Z,77.60
2018-06-30T03:03:05.556Z,77.60
2018-06-30T03:05:33.908Z,77.70
2018-06-30T03:08:02.226Z,77.70
2018-06-30T03:10:30.578Z,77.90
2018-06-30T03:12:58.902Z,77.90
2018-06-30T03:17:55.286Z,78.10
2018-06-30T03:20:23.633Z,78.10
2018-06-30T03:22:51.999Z,78.30
2018-06-30T03:25:20.378Z,78.20
2018-06-30T03:27:48.694Z,78.40
2018-06-30T03:30:17.034Z,78.40
2018-06-30T03:32:45.367Z,78.60
2018-06-30T03:35:13.698Z,78.70
2018-06-30T03:37:42.015Z,78.70
2018-06-30T03:40:10.367Z,79.00
2018-06-30T03:42:38.687Z,79.10
2018-06-30T03:45:07.051Z,79.10
2018-06-30T03:47:35.379Z,79.20
2018-06-30T03:50:03.938Z,79.30
2018-06-30T03:52:32.253Z,79.40
2018-06-30T03:55:00.606Z,79.50
2018-06-30T03:57:28.963Z,79.80
2018-06-30T03:59:57.303Z,79.70
2018-06-30T04:02:25.635Z,79.80
2018-06-30T04:04:54.039Z,79.70
2018-06-30T04:07:22.519Z,79.80
2018-06-30T04:09:50.870Z,79.80
2018-06-30T04:12:19.197Z,79.60
2018-06-30T04:14:47.544Z,79.70
2018-06-30T04:17:15.862Z,79.40
2018-06-30T04:19:44.220Z,79.60
2018-06-30T04:22:12.670Z,79.80
2018-06-30T04:24:40.908Z,79.70
2018-06-30T04:27:09.263Z,79.50
2018-06-30T04:29:37.587Z,79.70
2018-06-30T04:32:05.946Z,79.60
2018-06-30T04:34:34.303Z,79.40
2018-06-30T04:37:02.656Z,79.50
2018-06-30T04:39:30.971Z,79.50
2018-06-30T04:41:59.313Z,79.40
2018-06-30T04:44:27.639Z,79.40
2018-06-30T04:46:55.975Z,79.40
2018-06-30T04:49:24.339Z,79.40
2018-06-30T04:51:52.695Z,79.40
2018-06-30T04:54:21.018Z,79.00
2018-06-30T04:56:49.371Z,79.10
2018-06-30T04:59:17.747Z,79.20
2018-06-30T05:01:46.083Z,79.50
2018-06-30T05:04:14.407Z,78.90
2018-06-30T05:06:42.780Z,79.10
2018-06-30T05:09:11.105Z,79.10
2018-06-30T05:11:39.446Z,78.70
2018-06-30T05:14:07.765Z,78.30
2018-06-30T05:16:36.112Z,77.90
2018-06-30T05:19:04.470Z,77.70
2018-06-30T05:21:32.808Z,76.90
2018-06-30T05:24:01.134Z,76.40
2018-06-30T05:26:29.797Z,76.20
2018-06-30T05:28:58.127Z,75.60
2018-06-30T05:31:26.486Z,74.80
2018-06-30T05:33:54.858Z,74.30
2018-06-30T05:36:23.191Z,73.70
2018-06-30T05:41:19.563Z,71.90
2018-06-30T05:43:47.886Z,71.70
2018-06-30T05:46:16.247Z,70.90
2018-06-30T05:48:44.579Z,70.40
2018-06-30T05:51:12.913Z,69.70
2018-06-30T05:53:41.262Z,69.40
2018-06-30T05:56:09.616Z,70.10
2018-06-30T05:58:37.970Z,68.90
2018-06-30T06:01:06.782Z,68.80
2018-06-30T06:03:35.142Z,68.40
2018-06-30T06:06:03.563Z,69.10
2018-06-30T06:08:32.083Z,67.90
2018-06-30T06:11:00.467Z,67.90
2018-06-30T06:13:28.900Z,67.50
2018-06-30T06:15:57.276Z,66.90
2018-06-30T06:18:25.623Z,67.40
2018-06-30T06:20:53.967Z,66.50
2018-06-30T06:23:22.319Z,67.00
2018-06-30T06:25:50.702Z,66.50
2018-06-30T06:28:19.077Z,66.70
2018-06-30T06:30:47.419Z,65.90
2018-06-30T06:33:15.756Z,65.90
2018-06-30T06:35:44.075Z,65.30
2018-06-30T06:38:12.412Z,65.80
2018-06-30T06:40:40.747Z,65.20
2018-06-30T06:43:09.135Z,64.80
2018-06-30T06:45:37.471Z,65.10
2018-06-30T06:48:06.194Z,65.30
2018-06-30T06:50:34.519Z,64.50
2018-06-30T06:53:02.855Z,64.10
2018-06-30T06:55:31.167Z,63.90
2018-06-30T06:57:59.523Z,64.20
2018-06-30T07:00:27.970Z,64.00
2018-06-30T07:02:56.322Z,63.80
2018-06-30T07:05:24.750Z,64.30
2018-06-30T07:07:53.102Z,64.00
2018-06-30T07:10:21.443Z,64.10
2018-06-30T07:12:50.003Z,64.10
2018-06-30T07:15:18.331Z,62.70
2018-06-30T07:17:46.698Z,63.10
2018-06-30T07:20:15.035Z,63.00
2018-06-30T07:22:43.396Z,63.00
2018-06-30T07:25:11.853Z,62.70
2018-06-30T07:27:40.187Z,63.10
2018-06-30T07:30:08.818Z,62.50
2018-06-30T07:32:37.187Z,62.10
2018-06-30T07:37:33.672Z,61.40
2018-06-30T07:40:01.992Z,62.40
2018-06-30T07:42:30.326Z,61.90
2018-06-30T07:44:58.647Z,61.40
2018-06-30T07:47:26.987Z,60.40
2018-06-30T07:49:55.315Z,60.10
2018-06-30T07:52:23.650Z,60.10
2018-06-30T07:54:51.982Z,60.90
2018-06-30T07:57:20.319Z,59.90
2018-06-30T07:59:48.658Z,59.50
2018-06-30T08:02:17.210Z,59.10
2018-06-30T08:04:45.526Z,58.80
2018-06-30T08:07:14.000Z,58.90
2018-06-30T08:09:42.363Z,59.20
2018-06-30T08:12:10.703Z,57.70
2018-06-30T08:14:39.058Z,59.40
2018-06-30T08:17:07.410Z,59.30
2018-06-30T08:19:35.736Z,59.00
2018-06-30T08:22:04.118Z,59.60
2018-06-30T08:24:32.523Z,59.30
2018-06-30T08:27:00.883Z,57.80
2018-06-30T08:29:29.230Z,57.70
2018-06-30T08:31:57.559Z,57.60
2018-06-30T08:34:25.914Z,57.50
2018-06-30T08:36:54.327Z,56.80
2018-06-30T08:39:22.695Z,56.90
2018-06-30T08:41:51.047Z,56.10
2018-06-30T08:44:19.386Z,56.10
2018-06-30T08:46:47.703Z,56.00
2018-06-30T08:49:16.042Z,56.30
2018-06-30T08:51:44.516Z,56.30
2018-06-30T08:54:12.847Z,55.00
2018-06-30T08:56:41.169Z,55.70
2018-06-30T08:59:09.531Z,55.30
2018-06-30T09:01:37.847Z,55.40
2018-06-30T09:04:06.523Z,54.60
2018-06-30T09:06:34.879Z,54.60
2018-06-30T09:09:03.299Z,54.00
2018-06-30T09:11:31.622Z,54.00
2018-06-30T09:13:59.982Z,53.00
2018-06-30T09:16:28.300Z,54.40
2018-06-30T09:18:56.639Z,54.20
2018-06-30T09:21:24.959Z,54.80
2018-06-30T09:26:21.378Z,54.50
2018-06-30T09:28:49.867Z,54.20
2018-06-30T09:31:18.255Z,54.20
2018-06-30T09:33:46.590Z,54.30
2018-06-30T09:36:14.911Z,54.00
2018-06-30T09:38:43.276Z,53.60
2018-06-30T09:41:11.591Z,53.60
2018-06-30T09:43:39.943Z,54.00
2018-06-30T09:46:08.271Z,53.60
2018-06-30T09:48:36.611Z,53.80
2018-06-30T09:51:05.040Z,54.10
2018-06-30T09:53:33.287Z,54.60
2018-06-30T09:56:01.615Z,54.20
2018-06-30T09:58:29.986Z,54.00
2018-06-30T10:01:03.660Z,54.30
2018-06-30T10:03:32.007Z,54.70
2018-06-30T10:06:00.360Z,54.50
2018-06-30T10:08:28.702Z,54.70
2018-06-30T10:10:57.261Z,54.30
2018-06-30T10:13:25.637Z,54.30
2018-06-30T10:15:54.195Z,55.10
2018-06-30T10:18:22.606Z,54.70
2018-06-30T10:20:51.032Z,54.30
2018-06-30T10:23:19.335Z,55.10
2018-06-30T10:25:47.731Z,54.70
2018-06-30T10:28:16.098Z,54.70
2018-06-30T10:30:44.439Z,52.70
2018-06-30T10:33:12.790Z,53.00
2018-06-30T10:35:41.116Z,52.40
2018-06-30T10:38:09.479Z,52.50
2018-06-30T10:40:37.863Z,52.90
2018-06-30T10:43:06.491Z,52.30
2018-06-30T10:45:34.841Z,53.10
2018-06-30T10:48:03.217Z,52.70
2018-06-30T10:50:31.658Z,53.20
2018-06-30T10:52:59.975Z,53.00
2018-06-30T10:55:28.374Z,53.50
2018-06-30T10:57:56.750Z,52.10
2018-06-30T11:00:25.160Z,51.90
2018-06-30T11:02:53.447Z,51.90
2018-06-30T11:05:21.839Z,52.90
2018-06-30T11:07:50.183Z,51.60
2018-06-30T11:10:18.552Z,51.60
2018-06-30T11:12:46.929Z,51.90
2018-06-30T11:15:15.253Z,52.20
2018-06-30T11:17:43.743Z,52.30
2018-06-30T11:20:12.165Z,52.50
2018-06-30T11:22:40.498Z,53.10
2018-06-30T11:25:09.370Z,53.80
2018-06-30T11:27:37.699Z,53.40
2018-06-30T11:30:06.299Z,53.80
2018-06-30T11:32:35.263Z,53.50
2018-06-30T11:35:03.650Z,54.20
2018-06-30T11:37:32.119Z,53.70
2018-06-30T11:40:00.486Z,52.90
2018-06-30T11:42:28.819Z,53.60
2018-06-30T11:44:57.245Z,54.30
2018-06-30T11:47:25.684Z,54.80
2018-06-30T11:49:54.079Z,55.00
2018-06-30T11:52:22.491Z,54.10
2018-06-30T11:54:51.143Z,54.60
2018-06-30T11:57:19.478Z,53.90
2018-06-30T11:59:47.826Z,54.10
2018-06-30T12:02:16.164Z,54.20
2018-06-30T12:04:44.495Z,53.90
2018-06-30T12:07:12.825Z,55.20
2018-06-30T12:09:41.166Z,56.20
2018-06-30T12:12:09.475Z,54.70
2018-06-30T12:14:37.827Z,54.70
2018-06-30T12:17:06.234Z,54.90
2018-06-30T12:19:35.010Z,54.80
2018-06-30T12:22:03.447Z,54.70
2018-06-30T12:24:31.786Z,54.00
2018-06-30T12:27:00.106Z,53.90
2018-06-30T12:29:28.574Z,54.30
2018-06-30T12:31:56.902Z,54.70
2018-06-30T12:34:25.412Z,53.40
2018-06-30T12:36:53.739Z,54.80
2018-06-30T12:39:22.395Z,54.40
2018-06-30T12:41:50.731Z,54.10
2018-06-30T12:44:19.050Z,54.20
2018-06-30T12:46:47.432Z,53.50
2018-06-30T12:49:15.775Z,53.70
2018-06-30T12:51:44.111Z,54.30
2018-06-30T12:54:12.619Z,53.00
2018-06-30T12:56:40.971Z,54.30
2018-06-30T12:59:09.342Z,53.90
2018-06-30T13:01:37.698Z,54.50
2018-06-30T13:04:06.063Z,54.30
2018-06-30T13:06:34.411Z,54.60
2018-06-30T13:09:02.836Z,53.20
2018-06-30T13:11:31.160Z,53.60
2018-06-30T13:13:59.479Z,54.20
2018-06-30T13:16:27.823Z,53.70
2018-06-30T13:18:56.170Z,54.10
2018-06-30T13:21:24.511Z,54.10
2018-06-30T13:23:52.843Z,53.80
2018-06-30T13:26:21.219Z,54.80
2018-06-30T13:28:49.577Z,53.50
2018-06-30T13:31:17.983Z,53.30
2018-06-30T13:33:46.347Z,54.50
2018-06-30T13:36:14.718Z,52.70
2018-06-30T13:38:43.119Z,53.40
2018-06-30T13:41:11.491Z,54.20
2018-06-30T13:43:39.879Z,53.70
2018-06-30T13:46:08.262Z,51.50
2018-06-30T13:48:36.619Z,50.80
2018-06-30T13:51:04.971Z,52.00
2018-06-30T13:53:33.318Z,50.90
2018-06-30T13:56:01.659Z,51.00
2018-06-30T13:58:29.995Z,50.60
2018-06-30T14:00:58.398Z,51.00
2018-06-30T14:03:26.691Z,50.10
2018-06-30T14:05:55.027Z,50.20
2018-06-30T14:08:23.367Z,49.80
2018-06-30T14:10:51.755Z,50.20
2018-06-30T14:13:20.084Z,50.10
2018-06-30T14:15:48.430Z,50.20
2018-06-30T14:18:16.784Z,49.70
2018-06-30T14:20:45.122Z,50.10
2018-06-30T14:25:41.543Z,49.00
2018-06-30T14:28:10.155Z,49.50
2018-06-30T14:30:38.494Z,50.30
2018-06-30T14:33:06.835Z,49.10
2018-06-30T14:35:35.203Z,49.00
2018-06-30T14:38:03.567Z,49.10
2018-06-30T14:40:31.891Z,49.00
2018-06-30T14:43:00.230Z,50.60
2018-06-30T14:45:28.595Z,49.60
2018-06-30T14:47:56.930Z,49.60
2018-06-30T14:50:25.595Z,49.50
2018-06-30T14:52:54.595Z,48.90
2018-06-30T14:55:22.919Z,48.40
2018-06-30T14:57:51.359Z,49.10
2018-06-30T15:00:19.806Z,49.70
2018-06-30T15:02:48.303Z,49.60
2018-06-30T15:05:16.643Z,50.70
2018-06-30T15:07:44.984Z,49.40
2018-06-30T15:10:13.322Z,49.70
2018-06-30T15:12:41.664Z,50.10
2018-06-30T15:15:10.075Z,49.40
2018-06-30T15:17:38.707Z,49.30
2018-06-30T15:20:07.275Z,49.50
2018-06-30T15:22:35.842Z,49.90
2018-06-30T15:27:32.455Z,49.90
2018-06-30T15:32:28.850Z,49.10
2018-06-30T15:34:57.265Z,49.10
2018-06-30T15:37:25.612Z,49.60
2018-06-30T15:39:53.939Z,49.20
2018-06-30T15:42:22.303Z,49.70
2018-06-30T15:44:50.680Z,50.00
2018-06-30T15:47:19.055Z,48.50
2018-06-30T15:49:47.379Z,49.10
2018-06-30T15:52:16.205Z,49.20
2018-06-30T15:54:44.562Z,47.90
2018-06-30T15:57:13.019Z,47.50
2018-06-30T15:59:41.359Z,46.40
2018-06-30T16:02:09.747Z,45.20
2018-06-30T16:04:38.069Z,46.00
2018-06-30T16:07:06.407Z,46.00
2018-06-30T16:09:34.743Z,46.70
2018-06-30T16:12:03.108Z,46.50
2018-06-30T16:14:31.445Z,46.30
2018-06-30T16:16:59.810Z,45.40
2018-06-30T16:19:28.134Z,45.10
2018-06-30T16:21:56.474Z,45.10
2018-06-30T16:24:24.806Z,45.30
2018-06-30T16:26:53.257Z,45.60
2018-06-30T16:29:21.920Z,45.70
2018-06-30T16:31:50.285Z,45.60
2018-06-30T16:34:18.639Z,46.00
2018-06-30T16:36:46.978Z,45.60
2018-06-30T16:39:15.295Z,46.00
2018-06-30T16:41:44.376Z,45.20
2018-06-30T16:44:12.726Z,45.80
2018-06-30T16:46:41.361Z,45.60
2018-06-30T16:49:09.756Z,44.60
2018-06-30T16:51:38.051Z,44.50
2018-06-30T16:54:06.411Z,43.90
2018-06-30T16:56:34.724Z,44.70
2018-06-30T16:59:03.140Z,45.20
2018-06-30T17:01:31.475Z,44.90
2018-06-30T17:03:59.990Z,44.10
2018-06-30T17:06:28.479Z,43.40
2018-06-30T17:08:56.823Z,43.10
2018-06-30T17:11:25.156Z,42.60
2018-06-30T17:16:21.963Z,42.70
2018-06-30T17:18:50.303Z,43.70
2018-06-30T17:21:18.668Z,42.50
2018-06-30T17:23:47.086Z,41.40
2018-06-30T17:26:15.432Z,41.50
2018-06-30T17:28:43.780Z,41.40
2018-06-30T17:31:12.111Z,41.40
2018-06-30T17:33:40.447Z,41.40
2018-06-30T17:36:08.778Z,41.20
2018-06-30T17:38:37.119Z,40.40
2018-06-30T17:41:05.567Z,41.00
2018-06-30T17:43:33.943Z,41.00
2018-06-30T17:46:02.260Z,41.10
2018-06-30T17:48:30.595Z,41.10
2018-06-30T17:50:59.007Z,40.50
2018-06-30T17:53:27.393Z,40.80
2018-06-30T17:55:55.726Z,40.20
2018-06-30T17:58:24.099Z,40.10
2018-06-30T18:00:52.424Z,39.00
2018-06-30T18:03:20.849Z,39.40
2018-06-30T18:05:49.171Z,39.80
2018-06-30T18:08:17.560Z,38.90
2018-06-30T18:10:45.902Z,39.20
2018-06-30T18:13:14.275Z,39.60
2018-06-30T18:15:42.610Z,39.80
2018-06-30T18:18:10.971Z,39.80
2018-06-30T18:20:39.307Z,39.90
2018-06-30T18:23:07.656Z,39.60
2018-06-30T18:25:36.134Z,40.00
2018-06-30T18:28:04.519Z,40.00
2018-06-30T18:30:32.902Z,40.40
2018-06-30T18:33:01.260Z,40.00
2018-06-30T18:35:29.587Z,39.70
2018-06-30T18:37:57.931Z,39.80
2018-06-30T18:40:26.271Z,40.00
2018-06-30T18:42:54.618Z,39.70
2018-06-30T18:45:23.021Z,40.20
2018-06-30T18:47:51.409Z,40.20
2018-06-30T18:50:19.775Z,40.40
2018-06-30T18:52:48.256Z,40.10
2018-06-30T18:55:23.303Z,39.70
2018-06-30T18:57:51.711Z,39.70
2018-06-30T19:00:20.065Z,40.10
2018-06-30T19:05:16.467Z,39.50
2018-06-30T19:07:44.871Z,39.80
2018-06-30T19:10:13.407Z,40.30
2018-06-30T19:12:41.570Z,39.90
2018-06-30T19:15:09.947Z,40.30
2018-06-30T19:17:38.292Z,40.30
2018-06-30T19:22:34.743Z,40.80
2018-06-30T19:25:03.405Z,40.70
2018-06-30T19:27:31.765Z,40.40
2018-06-30T19:30:00.143Z,40.80
2018-06-30T19:32:28.484Z,40.50
2018-06-30T19:34:56.834Z,40.40
2018-06-30T19:37:25.255Z,40.70
2018-06-30T19:39:53.771Z,40.70
2018-06-30T19:42:22.176Z,40.60
2018-06-30T19:44:50.775Z,41.00
2018-06-30T19:47:19.103Z,41.20
2018-06-30T19:49:47.479Z,41.70
2018-06-30T19:52:15.851Z,41.70
2018-06-30T19:54:44.216Z,41.90
2018-06-30T19:57:12.600Z,41.60
2018-06-30T19:59:40.962Z,41.70
2018-06-30T20:02:09.307Z,41.90
2018-06-30T20:04:37.715Z,42.00
2018-06-30T20:07:06.184Z,42.30
2018-06-30T20:09:34.522Z,42.40
2018-06-30T20:12:02.923Z,43.00
2018-06-30T20:14:31.239Z,42.90
2018-06-30T20:16:59.576Z,43.00
2018-06-30T20:19:27.931Z,43.30
2018-06-30T20:21:56.286Z,43.80
2018-06-30T20:24:24.655Z,43.10
2018-06-30T20:26:53.055Z,43.00
2018-06-30T20:29:21.694Z,43.10
2018-06-30T20:31:50.027Z,43.20
2018-06-30T20:34:18.367Z,43.60
2018-06-30T20:36:46.690Z,43.60
2018-06-30T20:39:15.031Z,43.70
2018-06-30T20:41:43.355Z,43.90
2018-06-30T20:44:11.695Z,44.00
2018-06-30T20:46:40.146Z,44.00
2018-06-30T20:49:08.486Z,44.20
2018-06-30T20:51:36.855Z,44.40
2018-06-30T20:54:05.284Z,44.90
2018-06-30T20:56:33.623Z,44.30
2018-06-30T20:59:01.983Z,45.50
2018-06-30T21:01:30.328Z,45.20
2018-06-30T21:03:58.647Z,45.40
2018-06-30T21:06:26.995Z,44.70
2018-06-30T21:08:55.328Z,43.70
2018-06-30T21:11:23.674Z,43.90
2018-06-30T21:13:52.036Z,44.00
2018-06-30T21:16:20.395Z,43.80
2018-06-30T21:18:48.739Z,43.70
2018-06-30T21:21:17.082Z,43.80
2018-06-30T21:23:45.403Z,43.70
2018-06-30T21:26:13.754Z,44.00
2018-06-30T21:28:42.091Z,43.90
2018-06-30T21:31:10.439Z,43.70
2018-06-30T21:33:38.798Z,44.10
2018-06-30T21:36:07.183Z,43.90
2018-06-30T21:38:35.543Z,44.00
2018-06-30T21:41:03.899Z,44.00
2018-06-30T21:43:32.231Z,44.10
2018-06-30T21:46:00.567Z,44.60
2018-06-30T21:48:28.903Z,44.40
2018-06-30T21:50:57.255Z,44.40
2018-06-30T21:53:25.638Z,44.60
2018-06-30T21:55:53.987Z,44.90
2018-06-30T21:58:23.203Z,44.80
2018-06-30T22:00:56.932Z,45.30
2018-06-30T22:03:26.458Z,44.70
2018-06-30T22:05:56.007Z,45.00
2018-06-30T22:08:24.359Z,45.30
2018-06-30T22:10:52.772Z,45.30
2018-06-30T22:13:21.222Z,45.60
2018-06-30T22:15:50.260Z,45.60
2018-06-30T22:18:18.656Z,45.60
2018-06-30T22:20:46.974Z,45.90
2018-06-30T22:23:15.330Z,45.60
2018-06-30T22:25:43.683Z,45.70
2018-06-30T22:28:12.023Z,45.90
2018-06-30T22:30:40.384Z,46.00
2018-06-30T22:33:08.716Z,46.10
2018-06-30T22:35:37.059Z,46.30
2018-06-30T22:38:05.759Z,46.20
2018-06-30T22:40:34.111Z,46.70
2018-06-30T22:43:02.466Z,46.70
2018-06-30T22:45:30.810Z,46.80
2018-06-30T22:47:59.130Z,46.90
2018-06-30T22:50:27.490Z,47.20
2018-06-30T22:52:55.962Z,47.00
2018-06-30T22:55:24.395Z,47.10
2018-06-30T22:57:52.743Z,47.40
2018-06-30T23:00:21.146Z,47.50
2018-06-30T23:02:49.596Z,47.60
2018-06-30T23:05:17.970Z,47.30
2018-06-30T23:07:46.315Z,47.30
2018-06-30T23:10:15.115Z,47.80
2018-06-30T23:12:44.255Z,47.70
2018-06-30T23:15:12.635Z,47.80
2018-06-30T23:17:41.012Z,47.80
2018-06-30T23:20:09.557Z,48.00
2018-06-30T23:23:00.619Z,48.10
2018-06-30T23:25:30.032Z,48.00
2018-06-30T23:27:58.751Z,48.20
2018-06-30T23:30:27.760Z,48.30
2018-06-30T23:32:56.267Z,48.50
2018-06-30T23:35:25.608Z,48.60
2018-06-30T23:37:54.935Z,48.50
2018-06-30T23:40:23.331Z,48.80
2018-06-30T23:42:51.855Z,48.60
2018-06-30T23:45:20.743Z,48.90
2018-06-30T23:47:49.779Z,48.80
2018-06-30T23:50:18.202Z,49.10
2018-06-30T23:52:47.347Z,49.10
2018-06-30T23:55:15.699Z,49.30
2018-06-30T23:57:44.075Z,49.50
